WetterOnline ( http://www.wetteronline.de )

Wetter aktuell München

Aktuelles Wetter: München/Stadt (535m)

6-stündlich | Neueste Meldungen
Ortszeit Temperatur Wetter
Do, 24.01. 1:00 -3.5° C bedeckt
Mi, 23.01. 19:00 -3.7° C bedeckt
Mi, 23.01. 13:00 -3.8° C bedeckt
Mi, 23.01. 7:00 -4.7° C bedeckt
Mi, 23.01. 1:00 -4.7° C bedeckt
Di, 22.01. 19:00 -3.3° C bedeckt
Di, 22.01. 13:00 -2.4° C bedeckt
Di, 22.01. 7:00 -4.4° C bedeckt
Ortszeit Temperatur Wetter
Do, 24.01. 5:30 -3.6° C bewölkt
Do, 24.01. 5:10 -3.5° C bedeckt
Do, 24.01. 5:00 -3.5° C bewölkt
Do, 24.01. 4:50 -3.5° C bewölkt
Do, 24.01. 4:40 -3.4° C bewölkt
Do, 24.01. 4:30 -3.5° C bedeckt
Do, 24.01. 4:00 -3.6° C bedeckt
Do, 24.01. 3:30 -3.5° C bedeckt
Do, 24.01. 3:00 -3.4° C bedeckt
Do, 24.01. 2:30 -3.5° C bedeckt
Ortszeit Relative Feuchte Sichtweite
Do, 24.01. 1:00 78% 8 km
Mi, 23.01. 19:00 78% 8 km
Mi, 23.01. 13:00 83% 6 km
Mi, 23.01. 7:00 89% 5.0 km
Mi, 23.01. 1:00 89% 4.5 km
Di, 22.01. 19:00 82% 10 km
Di, 22.01. 13:00 79% 9 km
Di, 22.01. 7:00 97% 1.1 km
Ortszeit Relative Feuchte Sichtweite
Do, 24.01. 5:30 74% 10 km
Do, 24.01. 5:10 74% -
Do, 24.01. 5:00 74% 10 km
Do, 24.01. 4:50 74% -
Do, 24.01. 4:40 73% -
Do, 24.01. 4:30 73% 11 km
Do, 24.01. 4:00 73% 11 km
Do, 24.01. 3:30 75% 10 km
Do, 24.01. 3:00 75% 9 km
Do, 24.01. 2:30 75% 9 km
Ortszeit Niederschlagsmenge Niederschlagsart
Do, 24.01. 1:00 0.1 l/m2 in 6 Std. Schnee
Mi, 23.01. 19:00 0.0 l/m2 in 12 Std. -
Mi, 23.01. 13:00 0.0 l/m2 in 6 Std. -
Mi, 23.01. 7:00 0.0 l/m2 in 12 Std. -
Mi, 23.01. 1:00 0.0 l/m2 in 6 Std. -
Di, 22.01. 19:00 0.1 l/m2 in 12 Std. -
Di, 22.01. 13:00 0.1 l/m2 in 6 Std. Schnee
Di, 22.01. 7:00 0.1 l/m2 in 12 Std. Schnee
Ortszeit Niederschlagsmenge Niederschlagsart
Do, 24.01. 5:30 0.0 l/m2 in 1 Std. -
Do, 24.01. 5:10 keine Meldung -
Do, 24.01. 5:00 0.0 l/m2 in 1 Std. -
Do, 24.01. 4:50 keine Meldung -
Do, 24.01. 4:40 keine Meldung -
Do, 24.01. 4:30 0.0 l/m2 in 1 Std. -
Do, 24.01. 4:00 0.0 l/m2 in 1 Std. -
Do, 24.01. 3:30 0.0 l/m2 in 1 Std. -
Do, 24.01. 3:00 0.0 l/m2 in 1 Std. -
Do, 24.01. 2:30 0.0 l/m2 in 1 Std. -
Ortszeit Stärke Spitze Richtung
km/h Bft. km/h Grad Sektor
Do, 24.01. 1:00 6 1 17 70° O
Mi, 23.01. 19:00 9 2 15 60° NO
Mi, 23.01. 13:00 9 2 15 60° NO
Mi, 23.01. 7:00 7 2 11 70° O
Mi, 23.01. 1:00 4 1 22 90° O
Di, 22.01. 19:00 11 2 25 80° O
Di, 22.01. 13:00 4 1 14 230° SW
Di, 22.01. 7:00 4 1 14 330° NW
Ortszeit Stärke Spitze Richtung
km/h Bft. km/h Grad Sektor
Do, 24.01. 5:30 4 1 11 320° NW
Do, 24.01. 5:10 4 1 - 310° NW
Do, 24.01. 5:00 4 1 7 300° NW
Do, 24.01. 4:50 4 1 - 300° NW
Do, 24.01. 4:40 4 1 - 280° W
Do, 24.01. 4:30 4 1 4 270° W
Do, 24.01. 4:00 4 1 11 320° NW
Do, 24.01. 3:30 4 1 7 310° NW
Do, 24.01. 3:00 6 1 11 350° N
Do, 24.01. 2:30 7 2 11 290° W
Ortszeit Untergrenze Bedeckung Gattung
total tief tief mittel hoch
Do, 24.01. 1:00 480 m 8/8 8/8 - - -
Mi, 23.01. 19:00 480 m 8/8 8/8 - - -
Mi, 23.01. 13:00 240 m 8/8 8/8 - - -
Mi, 23.01. 7:00 150 m 8/8 8/8 - - -
Mi, 23.01. 1:00 150 m 8/8 8/8 - - -
Di, 22.01. 19:00 300 m 8/8 8/8 - - -
Di, 22.01. 13:00 300 m 8/8 8/8 - - -
Di, 22.01. 7:00 30 m 8/8 8/8 - - -
Ortszeit Bedeckungsgrad in Achtel und Wolkenuntergrenze
Do, 24.01. 5:30 7(510m)
Do, 24.01. 5:10 8(510m)
Do, 24.01. 5:00 7(510m)
Do, 24.01. 4:50 7(510m)
Do, 24.01. 4:40 7(540m)
Do, 24.01. 4:30 8(570m)
Do, 24.01. 4:00 8(600m)
Do, 24.01. 3:30 8(630m)
Do, 24.01. 3:00 8(630m)
Do, 24.01. 2:30 8(480m) 8(660m)
Ortszeit Luftdruck NN (hPa) Tendenz (hPa in 3 Std.)
Do, 24.01. 1:00 1004 + 2,2
Mi, 23.01. 19:00 1000 + 1,1
Mi, 23.01. 13:00 999 - 1,2
Mi, 23.01. 7:00 1001 - 1,5
Mi, 23.01. 1:00 1005 - 1,8
Di, 22.01. 19:00 1008 - 2,0
Di, 22.01. 13:00 1013 - 2,4
Di, 22.01. 7:00 1017 - 1,5
Ortszeit Luftdruck NN (hPa) Tendenz (hPa in 3 Std.)
Do, 24.01. 5:30 1006 + 1,6
Do, 24.01. 5:10 1006 keine Meldung
Do, 24.01. 5:00 1006 + 1,7
Do, 24.01. 4:50 1006 keine Meldung
Do, 24.01. 4:40 1006 keine Meldung
Do, 24.01. 4:30 1006 + 1,8
Do, 24.01. 4:00 1005 + 1,5
Do, 24.01. 3:30 1005 + 1,8
Do, 24.01. 3:00 1005 + 2,0
Do, 24.01. 2:30 1005 + 2,1
Ortszeit Schneehöhe (cm)
Do, 24.01. 1:00 3
Mi, 23.01. 19:00 3
Mi, 23.01. 13:00 3
Mi, 23.01. 7:00 3
Mi, 23.01. 1:00 3
Di, 22.01. 19:00 3
Di, 22.01. 13:00 3
Di, 22.01. 7:00 3
Ortszeit Schneehöhe (cm)
Do, 24.01. 5:30 3
Do, 24.01. 5:10 3
Do, 24.01. 5:00 3
Do, 24.01. 4:50 3
Do, 24.01. 4:40 3
Do, 24.01. 4:30 3
Do, 24.01. 4:00 3
Do, 24.01. 3:30 3
Do, 24.01. 3:00 3
Do, 24.01. 2:30 3
Link zu dieser Seite / Seite empfehlen

Das Wetter in ...